createdAt,value
2017-12-20T00:00:36.216Z,301.40
2017-12-20T00:03:08.710Z,111.90
2017-12-20T00:05:41.219Z,208.37
2017-12-20T00:08:13.726Z,80.33
2017-12-20T00:10:46.235Z,227.13
2017-12-20T00:13:19.517Z,97.00
2017-12-20T00:15:53.927Z,118.17
2017-12-20T00:18:27.502Z,224.27
2017-12-20T00:21:00.306Z,330.23
2017-12-20T00:23:32.993Z,92.50
2017-12-20T00:26:05.939Z,450.93
2017-12-20T00:28:38.449Z,448.50
2017-12-20T00:31:10.977Z,404.50
2017-12-20T00:33:43.487Z,292.30
2017-12-20T00:36:16.048Z,279.30
2017-12-20T00:38:50.391Z,332.97
2017-12-20T00:41:25.769Z,476.37
2017-12-20T00:43:58.935Z,361.53
2017-12-20T00:46:31.760Z,119.47
2017-12-20T00:49:04.736Z,334.43
2017-12-20T00:51:37.790Z,429.33
2017-12-20T00:54:10.398Z,412.33
2017-12-20T00:56:42.907Z,493.70
2017-12-20T00:59:15.438Z,478.37
2017-12-20T01:01:47.952Z,375.23
2017-12-20T01:04:25.931Z,337.10
2017-12-20T01:06:59.501Z,86.03
2017-12-20T01:09:32.159Z,104.27
2017-12-20T01:12:04.999Z,78.13
2017-12-20T01:14:37.803Z,283.53
2017-12-20T01:17:10.342Z,177.13
2017-12-20T01:19:42.846Z,84.77
2017-12-20T01:22:15.376Z,213.70
2017-12-20T01:24:47.875Z,199.57
2017-12-20T01:27:22.830Z,61.87
2017-12-20T01:29:57.932Z,55.07
2017-12-20T01:32:30.631Z,120.00
2017-12-20T01:35:03.441Z,75.20
2017-12-20T01:37:36.003Z,307.13
2017-12-20T01:40:08.805Z,59.13
2017-12-20T01:42:41.323Z,58.03
2017-12-20T01:45:13.812Z,216.10
2017-12-20T01:47:46.317Z,226.90
2017-12-20T01:50:19.913Z,91.90
2017-12-20T01:52:57.447Z,58.97
2017-12-20T01:55:30.158Z,287.43
2017-12-20T01:58:03.029Z,63.40
2017-12-20T02:00:35.894Z,144.17
2017-12-20T02:03:08.881Z,137.50
2017-12-20T02:05:41.731Z,57.73
2017-12-20T02:08:14.252Z,175.53
2017-12-20T02:10:46.787Z,337.03
2017-12-20T02:13:21.556Z,125.13
2017-12-20T02:15:58.977Z,239.47
2017-12-20T02:18:32.021Z,168.33
2017-12-20T02:21:04.951Z,217.27
2017-12-20T02:23:38.362Z,140.60
2017-12-20T02:26:11.280Z,141.13
2017-12-20T02:28:43.788Z,50.77
2017-12-20T02:31:16.307Z,254.47
2017-12-20T02:33:49.749Z,148.57
2017-12-20T02:36:28.068Z,310.43
2017-12-20T02:39:06.830Z,193.60
2017-12-20T02:41:40.082Z,224.10
2017-12-20T02:44:12.574Z,162.40
2017-12-20T02:46:45.084Z,94.63
2017-12-20T02:49:17.706Z,328.77
2017-12-20T02:51:54.071Z,288.53
2017-12-20T02:54:29.136Z,286.93
2017-12-20T02:57:02.276Z,259.93
2017-12-20T02:59:35.490Z,304.10
2017-12-20T03:02:08.154Z,213.10
2017-12-20T03:04:41.507Z,231.33
2017-12-20T03:07:14.028Z,109.23
2017-12-20T03:09:46.518Z,75.50
2017-12-20T03:12:21.621Z,244.93
2017-12-20T03:14:55.834Z,61.97
2017-12-20T03:17:29.570Z,273.97
2017-12-20T03:20:02.773Z,226.70
2017-12-20T03:22:36.038Z,64.23
2017-12-20T03:25:09.497Z,279.70
2017-12-20T03:27:42.308Z,130.43
2017-12-20T03:30:14.808Z,135.03
2017-12-20T03:32:47.323Z,88.50
2017-12-20T03:35:21.975Z,105.87
2017-12-20T03:37:56.544Z,116.17
2017-12-20T03:40:29.783Z,96.07
2017-12-20T03:43:02.933Z,69.07
2017-12-20T03:45:35.636Z,66.47
2017-12-20T03:48:08.257Z,47.20
2017-12-20T03:50:40.749Z,74.43
2017-12-20T03:53:13.268Z,33.97
2017-12-20T03:55:45.758Z,78.53
2017-12-20T03:58:18.899Z,309.27
2017-12-20T04:00:52.790Z,111.00
2017-12-20T04:03:27.056Z,34.50
2017-12-20T04:05:59.896Z,162.30
2017-12-20T04:08:33.378Z,47.53
2017-12-20T04:11:06.570Z,33.43
2017-12-20T04:13:39.825Z,178.50
2017-12-20T04:16:12.573Z,78.57
2017-12-20T04:18:45.076Z,177.23
2017-12-20T04:21:17.589Z,131.40
2017-12-20T04:23:52.269Z,82.67
2017-12-20T04:26:27.724Z,143.83
2017-12-20T04:29:01.080Z,48.40
2017-12-20T04:31:34.026Z,26.33
2017-12-20T04:34:06.789Z,77.77
2017-12-20T04:36:39.332Z,85.97
2017-12-20T04:39:11.980Z,117.30
2017-12-20T04:41:44.504Z,156.83
2017-12-20T04:44:17.258Z,123.00
2017-12-20T04:46:50.694Z,94.10
2017-12-20T04:49:23.420Z,21.40
2017-12-20T04:51:56.007Z,43.20
2017-12-20T04:54:28.486Z,32.63
2017-12-20T04:57:01.118Z,32.23
2017-12-20T04:59:33.860Z,24.20
2017-12-20T05:02:06.643Z,118.43
2017-12-20T05:04:39.988Z,144.53
2017-12-20T05:07:12.564Z,62.23
2017-12-20T05:09:45.052Z,38.37
2017-12-20T05:12:17.570Z,111.73
2017-12-20T05:14:56.556Z,140.00
2017-12-20T05:17:29.925Z,59.83
2017-12-20T05:20:02.750Z,117.10
2017-12-20T05:22:37.705Z,175.43
2017-12-20T05:25:10.896Z,109.03
2017-12-20T05:27:43.439Z,134.20
2017-12-20T05:30:16.006Z,32.67
2017-12-20T05:32:48.585Z,27.93
2017-12-20T05:35:25.190Z,76.10
2017-12-20T05:38:00.025Z,67.57
2017-12-20T05:40:33.510Z,78.40
2017-12-20T05:43:06.093Z,43.70
2017-12-20T05:45:39.258Z,97.20
2017-12-20T05:48:11.782Z,149.20
2017-12-20T05:50:44.294Z,151.03
2017-12-20T05:53:16.817Z,156.90
2017-12-20T05:55:49.828Z,136.47
2017-12-20T05:58:24.028Z,22.53
2017-12-20T06:04:10.199Z,79.30
2017-12-20T06:06:42.745Z,42.10
2017-12-20T06:09:19.566Z,44.33
2017-12-20T06:11:52.160Z,20.77
2017-12-20T06:14:24.928Z,92.27
2017-12-20T06:17:15.170Z,68.47
2017-12-20T06:19:47.694Z,124.73
2017-12-20T06:22:32.487Z,50.20
2017-12-20T06:25:05.514Z,168.20
2017-12-20T06:27:39.702Z,160.53
2017-12-20T06:30:12.508Z,164.87
2017-12-20T06:32:45.106Z,217.47
2017-12-20T06:35:17.616Z,172.03
2017-12-20T06:37:55.134Z,34.00
2017-12-20T06:40:33.171Z,43.33
2017-12-20T06:43:05.826Z,57.77
2017-12-20T06:45:45.213Z,80.20
2017-12-20T06:48:18.006Z,189.47
2017-12-20T06:50:57.251Z,137.00
2017-12-20T06:53:42.729Z,172.67
2017-12-20T06:56:16.111Z,157.37
2017-12-20T06:58:49.179Z,159.57
2017-12-20T07:01:29.682Z,124.73
2017-12-20T07:04:06.461Z,25.97
2017-12-20T07:06:41.531Z,41.30
2017-12-20T07:09:14.139Z,25.80
2017-12-20T07:11:46.704Z,60.13
2017-12-20T07:14:28.244Z,84.07
2017-12-20T07:17:06.564Z,106.70
2017-12-20T07:19:40.189Z,49.37
2017-12-20T07:22:12.814Z,102.77
2017-12-20T07:24:45.319Z,84.73
2017-12-20T07:27:17.838Z,54.80
2017-12-20T07:29:58.046Z,89.10
2017-12-20T07:35:17.631Z,106.33
2017-12-20T07:37:50.731Z,79.60
2017-12-20T07:40:23.305Z,164.20
2017-12-20T07:43:11.058Z,72.33
2017-12-20T07:45:43.558Z,51.67
2017-12-20T07:48:30.363Z,141.97
2017-12-20T07:51:03.412Z,131.93
2017-12-20T07:53:41.107Z,125.20
2017-12-20T07:56:13.646Z,112.57
2017-12-20T07:58:47.261Z,79.93
2017-12-20T08:01:29.923Z,133.07
2017-12-20T08:04:23.631Z,146.97
2017-12-20T08:07:02.196Z,21.07
2017-12-20T08:09:38.963Z,102.60
2017-12-20T08:12:12.543Z,120.70
2017-12-20T08:14:45.074Z,40.73
2017-12-20T08:17:17.680Z,43.17
2017-12-20T08:20:01.525Z,88.70
2017-12-20T08:22:36.629Z,97.00
2017-12-20T08:25:09.204Z,62.03
2017-12-20T08:27:41.720Z,16.30
2017-12-20T08:30:14.476Z,66.20
2017-12-20T08:32:46.987Z,57.33
2017-12-20T08:35:20.478Z,70.23
2017-12-20T08:37:55.361Z,66.10
2017-12-20T08:40:29.795Z,89.80
2017-12-20T08:43:05.093Z,29.17
2017-12-20T08:45:40.092Z,65.50
2017-12-20T08:48:12.638Z,68.50
2017-12-20T08:50:45.125Z,74.67
2017-12-20T08:53:17.651Z,29.37
2017-12-20T08:55:55.376Z,21.37
2017-12-20T09:01:12.685Z,33.07
2017-12-20T09:03:45.216Z,15.50
2017-12-20T09:06:17.810Z,60.33
2017-12-20T09:08:56.545Z,29.93
2017-12-20T09:11:31.166Z,62.10
2017-12-20T09:14:06.993Z,83.80
2017-12-20T09:16:40.146Z,67.30
2017-12-20T09:19:12.675Z,26.60
2017-12-20T09:21:45.180Z,35.43
2017-12-20T09:24:17.990Z,42.97
2017-12-20T09:26:59.546Z,70.73
2017-12-20T09:29:33.450Z,39.07
2017-12-20T09:32:08.687Z,42.07
2017-12-20T09:34:41.222Z,19.10
2017-12-20T09:37:13.707Z,41.80
2017-12-20T09:39:46.226Z,23.93
2017-12-20T09:42:18.811Z,31.73
2017-12-20T09:44:51.975Z,47.13
2017-12-20T09:47:24.557Z,27.47
2017-12-20T09:50:00.129Z,34.73
2017-12-20T09:52:32.748Z,22.63
2017-12-20T09:55:08.810Z,32.27
2017-12-20T09:57:41.332Z,28.60
2017-12-20T10:00:14.095Z,23.33
2017-12-20T10:02:46.607Z,23.83
2017-12-20T10:05:20.840Z,28.40
2017-12-20T10:07:53.422Z,12.70
2017-12-20T10:10:26.034Z,14.70
2017-12-20T10:12:58.552Z,17.73
2017-12-20T10:15:31.045Z,17.33
2017-12-20T10:18:08.727Z,18.50
2017-12-20T10:20:41.270Z,29.20
2017-12-20T10:23:13.793Z,23.93
2017-12-20T10:25:46.295Z,25.63
2017-12-20T10:28:20.736Z,18.67
2017-12-20T10:31:01.022Z,18.80
2017-12-20T10:33:33.656Z,32.47
2017-12-20T10:36:07.249Z,22.80
2017-12-20T10:38:40.541Z,25.57
2017-12-20T10:41:13.027Z,31.13
2017-12-20T10:43:45.530Z,41.40
2017-12-20T10:46:18.187Z,26.97
2017-12-20T10:48:51.445Z,34.13
2017-12-20T10:51:28.321Z,38.43
2017-12-20T10:54:01.655Z,22.63
2017-12-20T10:56:34.234Z,35.97
2017-12-20T10:59:06.743Z,43.87
2017-12-20T11:01:40.001Z,28.33
2017-12-20T11:04:12.602Z,23.67
2017-12-20T11:06:45.194Z,27.23
2017-12-20T11:09:17.714Z,25.13
2017-12-20T11:11:51.805Z,23.07
2017-12-20T11:14:24.358Z,38.87
2017-12-20T11:16:58.648Z,34.33
2017-12-20T11:19:31.528Z,45.40
2017-12-20T11:22:04.029Z,18.73
2017-12-20T11:24:36.582Z,48.53
2017-12-20T11:27:09.064Z,53.57
2017-12-20T11:29:41.587Z,47.33
2017-12-20T11:32:14.993Z,44.23
2017-12-20T11:34:47.538Z,54.37
2017-12-20T11:37:21.159Z,40.43
2017-12-20T11:39:57.413Z,30.07
2017-12-20T11:42:34.832Z,31.63
2017-12-20T11:45:07.617Z,41.47
2017-12-20T11:47:40.378Z,34.67
2017-12-20T11:50:15.009Z,48.77
2017-12-20T11:52:47.499Z,25.60
2017-12-20T11:55:20.872Z,68.00
2017-12-20T11:57:57.813Z,38.87
2017-12-20T12:00:30.385Z,37.63
2017-12-20T12:03:02.884Z,37.07
2017-12-20T12:05:37.458Z,22.50
2017-12-20T12:08:10.045Z,48.27
2017-12-20T12:10:42.597Z,34.13
2017-12-20T12:13:15.122Z,19.23
2017-12-20T12:15:47.702Z,37.27
2017-12-20T12:18:26.500Z,17.20
2017-12-20T12:21:01.023Z,33.77
2017-12-20T12:23:33.850Z,21.20
2017-12-20T12:26:06.394Z,41.47
2017-12-20T12:28:38.979Z,28.03
2017-12-20T12:31:11.579Z,24.87
2017-12-20T12:33:44.091Z,21.70
2017-12-20T12:36:16.592Z,23.43
2017-12-20T12:38:49.298Z,31.67
2017-12-20T12:41:21.807Z,33.53
2017-12-20T12:43:58.079Z,28.37
2017-12-20T12:46:30.582Z,18.10
2017-12-20T12:49:03.286Z,23.37
2017-12-20T12:51:35.823Z,13.93
2017-12-20T12:54:08.507Z,27.80
2017-12-20T12:56:41.030Z,24.37
2017-12-20T12:59:13.539Z,15.40
2017-12-20T13:01:46.101Z,23.90
2017-12-20T13:04:18.774Z,18.37
2017-12-20T13:06:51.870Z,14.30
2017-12-20T13:09:24.447Z,18.33
2017-12-20T13:11:56.975Z,21.07
2017-12-20T13:14:29.774Z,19.57
2017-12-20T13:17:02.312Z,17.80
2017-12-20T13:19:34.943Z,21.33
2017-12-20T13:22:07.481Z,19.37
2017-12-20T13:24:40.102Z,9.47
2017-12-20T13:27:14.886Z,11.80
2017-12-20T13:29:47.416Z,12.70
2017-12-20T13:32:20.110Z,8.43
2017-12-20T13:34:52.662Z,12.67
2017-12-20T13:37:26.015Z,12.90
2017-12-20T13:39:58.889Z,20.37
2017-12-20T13:42:31.851Z,15.83
2017-12-20T13:45:04.457Z,25.10
2017-12-20T13:47:37.087Z,16.93
2017-12-20T13:50:09.665Z,17.47
2017-12-20T13:52:42.207Z,21.63
2017-12-20T13:55:14.935Z,22.50
2017-12-20T13:57:47.553Z,10.67
2017-12-20T14:00:20.486Z,24.10
2017-12-20T14:02:53.093Z,15.27
2017-12-20T14:05:33.672Z,24.77
2017-12-20T14:08:06.160Z,16.97
2017-12-20T14:10:38.777Z,19.67
2017-12-20T14:13:11.330Z,29.73
2017-12-20T14:15:43.811Z,18.60
2017-12-20T14:18:16.370Z,13.17
2017-12-20T14:20:49.794Z,25.77
2017-12-20T14:23:24.921Z,10.20
2017-12-20T14:25:57.680Z,21.97
2017-12-20T14:28:30.250Z,26.83
2017-12-20T14:31:03.336Z,12.13
2017-12-20T14:33:36.043Z,35.70
2017-12-20T14:36:08.559Z,30.60
2017-12-20T14:38:41.107Z,34.13
2017-12-20T14:41:13.827Z,34.97
2017-12-20T14:43:46.368Z,15.43
2017-12-20T14:46:19.160Z,14.20
2017-12-20T14:48:52.747Z,32.93
2017-12-20T14:51:26.430Z,24.47
2017-12-20T14:53:59.179Z,18.20
2017-12-20T14:56:31.910Z,24.07
2017-12-20T14:59:04.553Z,32.93
2017-12-20T15:01:37.062Z,48.03
2017-12-20T15:04:09.633Z,38.47
2017-12-20T15:06:42.186Z,35.33
2017-12-20T15:09:14.750Z,29.20
2017-12-20T15:11:47.356Z,33.20
2017-12-20T15:14:21.228Z,10.70
2017-12-20T15:16:54.498Z,20.67
2017-12-20T15:19:27.584Z,39.07
2017-12-20T15:22:00.297Z,25.37
2017-12-20T15:24:33.172Z,23.43
2017-12-20T15:27:07.723Z,28.27
2017-12-20T15:29:40.336Z,15.90
2017-12-20T15:32:12.961Z,23.90
2017-12-20T15:34:45.591Z,30.40
2017-12-20T15:37:19.744Z,27.63
2017-12-20T15:39:53.941Z,37.60
2017-12-20T15:42:26.937Z,14.47
2017-12-20T15:45:02.831Z,13.17
2017-12-20T15:47:36.469Z,14.93
2017-12-20T15:50:08.982Z,36.87
2017-12-20T15:52:41.506Z,30.83
2017-12-20T15:55:14.040Z,16.63
2017-12-20T15:57:47.677Z,48.93
2017-12-20T16:00:21.985Z,19.77
2017-12-20T16:02:54.551Z,15.40
2017-12-20T16:05:27.710Z,23.80
2017-12-20T16:08:00.275Z,40.93
2017-12-20T16:10:32.824Z,31.97
2017-12-20T16:13:05.306Z,57.67
2017-12-20T16:15:37.824Z,47.97
2017-12-20T16:18:10.526Z,29.93
2017-12-20T16:20:43.043Z,35.50
2017-12-20T16:23:17.074Z,45.97
2017-12-20T16:26:01.494Z,69.63
2017-12-20T16:28:34.793Z,31.53
2017-12-20T16:31:07.817Z,28.73
2017-12-20T16:33:40.525Z,33.17
2017-12-20T16:36:13.083Z,36.53
2017-12-20T16:38:45.602Z,57.33
2017-12-20T16:41:19.135Z,36.17
2017-12-20T16:43:55.584Z,45.57
2017-12-20T16:46:28.180Z,31.50
2017-12-20T16:49:01.146Z,19.60
2017-12-20T16:51:34.200Z,83.83
2017-12-20T16:54:06.808Z,40.60
2017-12-20T16:56:39.514Z,82.30
2017-12-20T16:59:12.034Z,52.37
2017-12-20T17:01:44.626Z,33.77
2017-12-20T17:04:20.409Z,14.90
2017-12-20T17:06:54.471Z,16.60
2017-12-20T17:09:27.451Z,38.97
2017-12-20T17:12:01.366Z,67.13
2017-12-20T17:14:34.185Z,47.67
2017-12-20T17:17:06.875Z,50.53
2017-12-20T17:19:39.452Z,51.17
2017-12-20T17:22:11.951Z,14.13
2017-12-20T17:24:44.522Z,26.13
2017-12-20T17:27:17.035Z,20.97
2017-12-20T17:29:50.601Z,32.30
2017-12-20T17:32:25.147Z,53.10
2017-12-20T17:34:57.766Z,12.00
2017-12-20T17:37:30.271Z,23.63
2017-12-20T17:40:02.788Z,12.93
2017-12-20T17:42:35.363Z,12.77
2017-12-20T17:45:07.883Z,16.97
2017-12-20T17:47:40.383Z,30.27
2017-12-20T17:50:12.958Z,69.60
2017-12-20T17:52:45.455Z,23.63
2017-12-20T17:55:17.959Z,54.73
2017-12-20T17:57:50.546Z,22.93
2017-12-20T18:00:23.108Z,49.43
2017-12-20T18:02:57.097Z,41.53
2017-12-20T18:05:31.558Z,9.90
2017-12-20T18:08:04.276Z,25.00
2017-12-20T18:10:36.802Z,9.17
2017-12-20T18:13:09.431Z,28.47
2017-12-20T18:15:43.052Z,27.13
2017-12-20T18:18:16.595Z,10.70
2017-12-20T18:20:52.187Z,15.87
2017-12-20T18:23:25.961Z,38.93
2017-12-20T18:25:58.593Z,53.57
2017-12-20T18:28:31.091Z,35.70
2017-12-20T18:31:03.642Z,67.77
2017-12-20T18:33:36.156Z,41.60
2017-12-20T18:36:09.080Z,40.20
2017-12-20T18:38:41.663Z,33.47
2017-12-20T18:41:14.187Z,25.20
2017-12-20T18:43:46.700Z,51.33
2017-12-20T18:46:20.574Z,53.50
2017-12-20T18:48:54.514Z,44.30
2017-12-20T18:51:27.097Z,92.13
2017-12-20T18:53:59.596Z,96.57
2017-12-20T18:56:32.731Z,56.80
2017-12-20T18:59:05.310Z,60.83
2017-12-20T19:01:37.896Z,20.40
2017-12-20T19:04:10.387Z,58.70
2017-12-20T19:06:42.905Z,24.40
2017-12-20T19:09:15.405Z,90.37
2017-12-20T19:11:50.075Z,43.40
2017-12-20T19:14:26.159Z,42.33
2017-12-20T19:16:59.101Z,40.47
2017-12-20T19:19:32.312Z,139.73
2017-12-20T19:22:04.841Z,72.33
2017-12-20T19:24:40.333Z,58.40
2017-12-20T19:27:12.972Z,63.47
2017-12-20T19:29:45.478Z,71.47
2017-12-20T19:32:18.304Z,86.70
2017-12-20T19:34:51.913Z,73.23
2017-12-20T19:37:25.933Z,55.37
2017-12-20T19:39:58.769Z,38.23
2017-12-20T19:42:31.307Z,70.73
2017-12-20T19:45:03.878Z,52.97
2017-12-20T19:47:36.390Z,52.20
2017-12-20T19:50:08.906Z,60.93
2017-12-20T19:52:41.517Z,65.30
2017-12-20T19:55:14.006Z,45.27
2017-12-20T19:57:46.526Z,56.77
2017-12-20T20:00:19.430Z,47.00
2017-12-20T20:02:55.291Z,80.83
2017-12-20T20:05:27.830Z,56.00
2017-12-20T20:08:00.351Z,66.43
2017-12-20T20:10:32.858Z,81.00
2017-12-20T20:13:05.938Z,57.13
2017-12-20T20:15:38.494Z,62.97
2017-12-20T20:18:13.617Z,67.97
2017-12-20T20:20:46.503Z,166.23
2017-12-20T20:23:19.034Z,53.20
2017-12-20T20:25:51.688Z,180.73
2017-12-20T20:28:24.244Z,156.10
2017-12-20T20:30:56.894Z,87.83
2017-12-20T20:33:29.537Z,46.77
2017-12-20T20:36:02.682Z,88.70
2017-12-20T20:38:35.738Z,160.87
2017-12-20T20:41:08.264Z,51.87
2017-12-20T20:43:40.799Z,92.93
2017-12-20T20:46:13.385Z,75.93
2017-12-20T20:48:45.875Z,162.30
2017-12-20T20:51:20.616Z,119.27
2017-12-20T20:53:53.241Z,91.40
2017-12-20T20:56:25.829Z,171.03
2017-12-20T20:58:58.351Z,157.77
2017-12-20T21:01:31.478Z,124.90
2017-12-20T21:04:04.027Z,186.83
2017-12-20T21:06:36.564Z,237.57
2017-12-20T21:09:09.674Z,176.30
2017-12-20T21:11:43.325Z,57.40
2017-12-20T21:14:17.907Z,119.17
2017-12-20T21:16:50.453Z,95.00
2017-12-20T21:19:22.957Z,158.03
2017-12-20T21:21:56.303Z,142.27
2017-12-20T21:24:28.867Z,76.33
2017-12-20T21:27:01.497Z,153.23
2017-12-20T21:29:34.015Z,137.73
2017-12-20T21:32:08.083Z,95.77
2017-12-20T21:34:41.290Z,153.53
2017-12-20T21:37:14.448Z,129.50
2017-12-20T21:39:47.354Z,174.30
2017-12-20T21:42:22.039Z,144.00
2017-12-20T21:44:55.085Z,141.00
2017-12-20T21:47:30.088Z,140.20
2017-12-20T21:50:04.047Z,132.20
2017-12-20T21:52:36.720Z,152.60
2017-12-20T21:55:09.249Z,110.67
2017-12-20T21:57:42.217Z,93.30
2017-12-20T22:00:15.517Z,144.37
2017-12-20T22:02:48.132Z,100.93
2017-12-20T22:05:20.754Z,97.33
2017-12-20T22:07:53.323Z,114.10
2017-12-20T22:10:25.855Z,99.10
2017-12-20T22:12:58.778Z,227.13
2017-12-20T22:15:31.563Z,154.40
2017-12-20T22:18:04.323Z,162.90
2017-12-20T22:20:37.264Z,99.00
2017-12-20T22:23:10.180Z,78.83
2017-12-20T22:25:42.804Z,99.50
2017-12-20T22:28:15.327Z,195.53
2017-12-20T22:30:47.852Z,114.83
2017-12-20T22:33:20.532Z,137.53
2017-12-20T22:35:53.069Z,111.07
2017-12-20T22:38:25.620Z,74.20
2017-12-20T22:40:58.115Z,70.20
2017-12-20T22:43:31.569Z,74.43
2017-12-20T22:46:04.196Z,96.17
2017-12-20T22:48:37.321Z,87.57
2017-12-20T22:51:09.855Z,78.67
2017-12-20T22:53:42.376Z,67.37
2017-12-20T22:56:14.904Z,89.47
2017-12-20T22:58:48.620Z,64.63
2017-12-20T23:01:21.162Z,89.03
2017-12-20T23:03:53.716Z,143.87
2017-12-20T23:06:26.394Z,115.10
2017-12-20T23:08:58.926Z,274.00
2017-12-20T23:11:31.440Z,80.30
2017-12-20T23:14:04.692Z,163.70
2017-12-20T23:16:37.242Z,113.93
2017-12-20T23:19:09.760Z,91.20
2017-12-20T23:21:42.265Z,95.37
2017-12-20T23:24:14.797Z,105.77
2017-12-20T23:26:47.386Z,181.90
2017-12-20T23:29:20.002Z,145.93
2017-12-20T23:31:55.363Z,94.67
2017-12-20T23:34:29.268Z,166.87
2017-12-20T23:37:01.822Z,193.13
2017-12-20T23:39:34.970Z,170.23
2017-12-20T23:42:07.514Z,120.77
2017-12-20T23:44:40.238Z,106.97
2017-12-20T23:47:13.032Z,71.63
2017-12-20T23:49:45.535Z,50.43
2017-12-20T23:52:18.044Z,92.70
2017-12-20T23:54:50.564Z,77.20
2017-12-20T23:57:23.083Z,71.67
2017-12-20T23:59:55.887Z,58.57
